createdAt,value
2023-01-11T00:00:40.539Z,-9.26
2023-01-11T00:03:07.693Z,-9.37
2023-01-11T00:05:39.346Z,-9.07
2023-01-11T00:08:07.164Z,-9.28
2023-01-11T00:10:34.532Z,-9.45
2023-01-11T00:13:02.247Z,-9.10
2023-01-11T00:15:29.489Z,-9.21
2023-01-11T00:17:57.844Z,-9.26
2023-01-11T00:20:25.527Z,-9.37
2023-01-11T00:22:52.834Z,-9.17
2023-01-11T00:25:20.054Z,-9.15
2023-01-11T00:27:49.945Z,-9.14
2023-01-11T00:30:17.976Z,-9.24
2023-01-11T00:32:45.276Z,-9.12
2023-01-11T00:35:13.230Z,-9.02
2023-01-11T00:37:40.495Z,-9.02
2023-01-11T00:40:08.459Z,-9.07
2023-01-11T00:42:54.356Z,-9.00
2023-01-11T00:45:39.833Z,-8.79
2023-01-11T00:48:07.565Z,-8.91
2023-01-11T00:50:37.171Z,-8.79
2023-01-11T00:53:05.296Z,-8.82
2023-01-11T00:55:32.725Z,-8.77
2023-01-11T00:58:00.602Z,-8.69
2023-01-11T01:00:29.494Z,-8.70
2023-01-11T01:02:56.979Z,-8.71
2023-01-11T01:05:24.142Z,-8.73
2023-01-11T01:07:51.387Z,-8.93
2023-01-11T01:10:19.527Z,-8.82
2023-01-11T01:13:05.511Z,-9.05
2023-01-11T01:15:33.525Z,-8.94
2023-01-11T01:18:00.987Z,-8.93
2023-01-11T01:20:28.369Z,-8.82
2023-01-11T01:22:55.597Z,-8.81
2023-01-11T01:25:22.735Z,-8.72
2023-01-11T01:27:49.842Z,-8.75
2023-01-11T01:30:17.395Z,-8.85
2023-01-11T01:32:44.565Z,-8.80
2023-01-11T01:35:11.810Z,-8.75
2023-01-11T01:37:38.943Z,-8.64
2023-01-11T01:40:06.823Z,-8.62
2023-01-11T01:42:33.977Z,-8.52
2023-01-11T01:45:07.086Z,-8.54
2023-01-11T01:47:53.676Z,-8.71
2023-01-11T01:50:25.208Z,-8.67
2023-01-11T01:52:56.164Z,-8.68
2023-01-11T01:55:26.871Z,-8.54
2023-01-11T01:57:55.675Z,-8.57
2023-01-11T02:00:22.834Z,-8.59
2023-01-11T02:02:50.804Z,-8.65
2023-01-11T02:05:18.729Z,-8.50
2023-01-11T02:07:46.918Z,-8.42
2023-01-11T02:10:17.311Z,-8.39
2023-01-11T02:12:59.237Z,-8.41
2023-01-11T02:15:26.447Z,-8.87
2023-01-11T02:17:53.576Z,-8.77
2023-01-11T02:20:35.142Z,-8.69
2023-01-11T02:23:30.103Z,-8.96
2023-01-11T02:26:34.764Z,-8.93
2023-01-11T02:29:14.178Z,-8.71
2023-01-11T02:31:56.251Z,-8.83
2023-01-11T02:34:48.411Z,-8.48
2023-01-11T02:37:33.692Z,-8.42
2023-01-11T02:40:08.262Z,-8.68
2023-01-11T02:43:12.218Z,-8.72
2023-01-11T02:45:59.821Z,-8.90
2023-01-11T02:48:31.756Z,-9.01
2023-01-11T02:50:59.223Z,-9.03
2023-01-11T02:53:30.205Z,-9.23
2023-01-11T02:56:01.577Z,-9.19
2023-01-11T02:58:33.034Z,-9.01
2023-01-11T03:01:01.209Z,-8.78
2023-01-11T03:03:28.435Z,-8.79
2023-01-11T03:06:02.304Z,-8.65
2023-01-11T03:08:40.733Z,-8.74
2023-01-11T03:11:36.392Z,-8.93
2023-01-11T03:14:14.815Z,-8.91
2023-01-11T03:17:22.386Z,-8.82
2023-01-11T03:19:54.829Z,-8.75
2023-01-11T03:22:28.776Z,-8.57
2023-01-11T03:25:01.483Z,-8.55
2023-01-11T03:27:42.693Z,-8.50
2023-01-11T03:30:24.043Z,-8.69
2023-01-11T03:33:02.043Z,-8.84
2023-01-11T03:35:59.452Z,-8.82
2023-01-11T03:38:58.171Z,-8.71
2023-01-11T03:41:30.031Z,-8.93
2023-01-11T03:44:00.210Z,-8.85
2023-01-11T03:46:32.088Z,-8.64
2023-01-11T03:49:07.967Z,-8.55
2023-01-11T03:51:41.651Z,-8.37
2023-01-11T03:54:13.777Z,-8.61
2023-01-11T03:57:04.234Z,-8.56
2023-01-11T03:59:32.140Z,-8.51
2023-01-11T04:02:00.036Z,-8.57
2023-01-11T04:04:28.060Z,-8.75
2023-01-11T04:06:55.293Z,-8.53
2023-01-11T04:09:22.521Z,-8.41
2023-01-11T04:11:49.687Z,-8.45
2023-01-11T04:14:16.786Z,-8.61
2023-01-11T04:16:43.915Z,-8.82
2023-01-11T04:19:11.136Z,-8.68
2023-01-11T04:21:38.236Z,-8.77
2023-01-11T04:24:05.518Z,-8.70
2023-01-11T04:26:33.264Z,-8.55
2023-01-11T04:29:00.355Z,-8.57
2023-01-11T04:31:27.518Z,-8.66
2023-01-11T04:33:54.629Z,-8.51
2023-01-11T04:36:21.943Z,-8.46
2023-01-11T04:38:49.087Z,-8.79
2023-01-11T04:41:34.538Z,-8.66
2023-01-11T04:44:01.669Z,-8.62
2023-01-11T04:46:28.758Z,-8.85
2023-01-11T04:48:56.512Z,-8.84
2023-01-11T04:51:23.826Z,-8.83
2023-01-11T04:53:51.199Z,-8.61
2023-01-11T04:56:18.948Z,-8.50
2023-01-11T04:58:46.481Z,-8.60
2023-01-11T05:01:18.894Z,-8.59
2023-01-11T05:03:47.211Z,-8.57
2023-01-11T05:06:15.351Z,-8.53
2023-01-11T05:08:51.536Z,-8.39
2023-01-11T05:11:19.102Z,-8.47
2023-01-11T05:13:46.195Z,-8.74
2023-01-11T05:16:23.944Z,-9.00
2023-01-11T05:18:54.133Z,-9.01
2023-01-11T05:21:27.455Z,-8.91
2023-01-11T05:23:54.780Z,-8.78
2023-01-11T05:26:24.276Z,-8.70
2023-01-11T05:28:52.504Z,-8.68
2023-01-11T05:31:19.816Z,-8.86
2023-01-11T05:33:46.974Z,-8.85
2023-01-11T05:36:16.645Z,-8.88
2023-01-11T05:38:46.109Z,-8.70
2023-01-11T05:41:13.525Z,-8.54
2023-01-11T05:43:59.469Z,-8.52
2023-01-11T05:46:27.320Z,-8.65
2023-01-11T05:48:56.006Z,-8.67
2023-01-11T05:51:23.359Z,-8.45
2023-01-11T05:53:50.455Z,-8.31
2023-01-11T05:56:17.539Z,-8.20
2023-01-11T05:58:47.910Z,-8.37
2023-01-11T06:01:15.726Z,-8.31
2023-01-11T06:03:42.841Z,-8.39
2023-01-11T06:06:09.953Z,-8.61
2023-01-11T06:08:37.221Z,-8.51
2023-01-11T06:11:04.635Z,-8.39
2023-01-11T06:13:34.048Z,-8.39
2023-01-11T06:16:12.141Z,-8.24
2023-01-11T06:18:42.471Z,-8.21
2023-01-11T06:21:11.163Z,-8.14
2023-01-11T06:23:41.185Z,-8.14
2023-01-11T06:26:11.264Z,-8.06
2023-01-11T06:28:38.469Z,-7.99
2023-01-11T06:31:07.207Z,-8.12
2023-01-11T06:33:34.531Z,-8.15
2023-01-11T06:36:10.281Z,-8.11
2023-01-11T06:38:38.522Z,-8.14
2023-01-11T06:41:08.501Z,-8.29
2023-01-11T06:43:37.978Z,-8.17
2023-01-11T06:46:05.535Z,-7.85
2023-01-11T06:48:32.747Z,-7.96
2023-01-11T06:51:02.738Z,-8.00
2023-01-11T06:53:29.882Z,-7.96
2023-01-11T06:55:58.644Z,-8.16
2023-01-11T06:58:26.998Z,-8.41
2023-01-11T07:00:57.238Z,-8.11
2023-01-11T07:03:26.020Z,-8.00
2023-01-11T07:05:56.743Z,-7.92
2023-01-11T07:08:25.664Z,-7.76
2023-01-11T07:10:52.970Z,-7.70
2023-01-11T07:13:20.402Z,-7.67
2023-01-11T07:15:50.840Z,-7.63
2023-01-11T07:18:19.323Z,-7.63
2023-01-11T07:20:47.051Z,-7.73
2023-01-11T07:23:14.311Z,-7.57
2023-01-11T07:25:41.676Z,-7.64
2023-01-11T07:28:09.461Z,-7.37
2023-01-11T07:30:56.264Z,-7.29
2023-01-11T07:33:25.281Z,-7.08
2023-01-11T07:35:53.095Z,-7.10
2023-01-11T07:38:20.208Z,-7.24
2023-01-11T07:40:47.457Z,-7.19
2023-01-11T07:43:15.373Z,-7.25
2023-01-11T07:45:49.604Z,-7.24
2023-01-11T07:48:25.261Z,-7.17
2023-01-11T07:50:53.290Z,-6.92
2023-01-11T07:53:20.726Z,-6.82
2023-01-11T07:55:47.882Z,-6.84
2023-01-11T07:58:15.459Z,-6.93
2023-01-11T08:00:43.186Z,-6.86
2023-01-11T08:03:10.856Z,-7.21
2023-01-11T08:05:38.420Z,-7.13
2023-01-11T08:08:06.982Z,-7.03
2023-01-11T08:10:34.433Z,-7.04
2023-01-11T08:13:31.182Z,-6.88
2023-01-11T08:15:59.113Z,-7.01
2023-01-11T08:18:26.310Z,-7.22
2023-01-11T08:20:54.206Z,-7.16
2023-01-11T08:23:21.298Z,-6.96
2023-01-11T08:25:48.657Z,-6.98
2023-01-11T08:28:15.798Z,-6.76
2023-01-11T08:30:44.413Z,-7.18
2023-01-11T08:33:11.865Z,-7.17
2023-01-11T08:35:39.431Z,-7.09
2023-01-11T08:38:06.817Z,-6.93
2023-01-11T08:40:34.447Z,-6.71
2023-01-11T08:43:01.650Z,-6.78
2023-01-11T08:45:29.569Z,-6.83
2023-01-11T08:47:56.705Z,-6.89
2023-01-11T08:50:23.823Z,-6.76
2023-01-11T08:52:51.818Z,-6.54
2023-01-11T08:55:19.795Z,-6.38
2023-01-11T08:57:47.280Z,-6.22
2023-01-11T09:00:15.277Z,-6.12
2023-01-11T09:02:42.831Z,-6.15
2023-01-11T09:05:10.091Z,-6.09
2023-01-11T09:07:37.389Z,-6.43
2023-01-11T09:10:05.383Z,-6.53
2023-01-11T09:12:32.936Z,-6.48
2023-01-11T09:15:00.605Z,-6.27
2023-01-11T09:17:27.902Z,-6.60
2023-01-11T09:19:55.038Z,-6.84
2023-01-11T09:22:22.201Z,-6.61
2023-01-11T09:24:49.433Z,-6.33
2023-01-11T09:27:16.835Z,-6.21
2023-01-11T09:29:44.009Z,-6.19
2023-01-11T09:32:11.254Z,-6.00
2023-01-11T09:34:39.299Z,-6.21
2023-01-11T09:37:07.233Z,-6.46
2023-01-11T09:39:35.330Z,-6.39
2023-01-11T09:42:41.187Z,-6.35
2023-01-11T09:45:27.941Z,-6.19
2023-01-11T09:48:04.863Z,-6.23
2023-01-11T09:50:41.324Z,-6.51
2023-01-11T09:53:28.248Z,-6.73
2023-01-11T09:55:59.696Z,-6.52
2023-01-11T09:58:50.974Z,-6.19
2023-01-11T10:01:20.849Z,-6.04
2023-01-11T10:03:54.348Z,-6.19
2023-01-11T10:06:29.604Z,-6.24
2023-01-11T10:18:26.733Z,-5.92
2023-01-11T10:19:33.523Z,-6.04
2023-01-11T10:22:01.567Z,-6.19
2023-01-11T10:24:37.383Z,-6.10
2023-01-11T10:27:10.819Z,-6.15
2023-01-11T10:29:53.343Z,-6.01
2023-01-11T10:32:46.052Z,-5.75
2023-01-11T10:35:37.278Z,-5.99
2023-01-11T10:38:32.694Z,-6.17
2023-01-11T10:41:34.069Z,-6.27
2023-01-11T10:44:10.203Z,-6.05
2023-01-11T10:46:43.566Z,-6.17
2023-01-11T10:49:41.227Z,-6.14
2023-01-11T10:52:30.238Z,-6.46
2023-01-11T10:54:59.218Z,-6.58
2023-01-11T10:58:01.422Z,-6.61
2023-01-11T11:00:38.806Z,-6.52
2023-01-11T11:03:16.543Z,-6.19
2023-01-11T11:05:49.649Z,-6.25
2023-01-11T11:08:28.090Z,-6.65
2023-01-11T11:11:06.807Z,-6.44
2023-01-11T11:14:02.323Z,-6.44
2023-01-11T11:16:48.095Z,-6.32
2023-01-11T11:19:20.348Z,-6.35
2023-01-11T11:21:48.545Z,-6.26
2023-01-11T11:24:23.180Z,-5.92
2023-01-11T11:26:58.239Z,-5.97
2023-01-11T11:29:30.709Z,-6.90
2023-01-11T11:32:01.245Z,-6.82
2023-01-11T11:34:28.894Z,-6.69
2023-01-11T11:36:59.074Z,-6.58
2023-01-11T11:39:33.267Z,-6.31
2023-01-11T11:42:14.573Z,-6.12
2023-01-11T11:44:41.714Z,-6.33
2023-01-11T11:47:16.520Z,-6.19
2023-01-11T11:49:44.028Z,-5.93
2023-01-11T11:52:17.813Z,-5.96
2023-01-11T11:54:57.129Z,-5.92
2023-01-11T11:57:28.467Z,-5.94
2023-01-11T12:00:09.263Z,-5.97
2023-01-11T12:02:43.335Z,-6.10
2023-01-11T12:05:11.223Z,-6.39
2023-01-11T12:07:54.359Z,-6.55
2023-01-11T12:10:25.012Z,-6.29
2023-01-11T12:13:04.060Z,-6.09
2023-01-11T12:15:33.005Z,-6.16
2023-01-11T12:18:21.779Z,-6.13
2023-01-11T12:20:49.656Z,-6.27
2023-01-11T12:23:22.172Z,-6.20
2023-01-11T12:26:13.423Z,-6.21
2023-01-11T12:29:06.061Z,-6.15
2023-01-11T12:31:54.682Z,-6.25
2023-01-11T12:34:46.699Z,-6.27
2023-01-11T12:37:32.250Z,-6.06
2023-01-11T12:40:27.261Z,-6.20
2023-01-11T12:43:06.119Z,-5.97
2023-01-11T12:45:47.365Z,-5.97
2023-01-11T12:48:42.221Z,-5.93
2023-01-11T12:51:24.281Z,-5.85
2023-01-11T12:54:17.415Z,-5.78
2023-01-11T12:56:54.152Z,-5.94
2023-01-11T12:59:21.166Z,-6.16
2023-01-11T13:02:12.782Z,-6.05
2023-01-11T13:05:04.102Z,-6.01
2023-01-11T13:08:01.010Z,-6.12
2023-01-11T13:10:41.622Z,-6.07
2023-01-11T13:13:26.801Z,-5.90
2023-01-11T13:16:18.962Z,-6.16
2023-01-11T13:19:00.788Z,-6.29
2023-01-11T13:21:53.551Z,-6.11
2023-01-11T13:24:26.658Z,-5.88
2023-01-11T13:27:06.170Z,-6.24
2023-01-11T13:29:48.417Z,-5.88
2023-01-11T13:32:22.512Z,-6.04
2023-01-11T13:34:58.542Z,-5.99
2023-01-11T13:37:34.371Z,-5.98
2023-01-11T13:40:17.769Z,-6.06
2023-01-11T13:42:59.529Z,-6.20
2023-01-11T13:45:35.457Z,-5.93
2023-01-11T13:48:12.623Z,-6.00
2023-01-11T13:51:04.674Z,-6.05
2023-01-11T13:53:44.089Z,-5.95
2023-01-11T13:56:23.942Z,-6.01
2023-01-11T13:58:53.906Z,-6.11
2023-01-11T14:01:40.820Z,-6.04
2023-01-11T14:04:15.994Z,-5.98
2023-01-11T14:06:56.764Z,-6.01
2023-01-11T14:09:54.577Z,-6.08
2023-01-11T14:12:43.300Z,-6.01
2023-01-11T14:15:49.391Z,-5.79
2023-01-11T14:18:31.763Z,-5.83
2023-01-11T14:21:12.824Z,-5.89
2023-01-11T14:24:01.268Z,-6.14
2023-01-11T14:26:35.802Z,-6.16
2023-01-11T14:29:25.701Z,-6.18
2023-01-11T14:32:21.579Z,-6.15
2023-01-11T14:35:07.856Z,-6.25
2023-01-11T14:38:05.808Z,-6.05
2023-01-11T14:40:58.260Z,-5.73
2023-01-11T14:44:02.096Z,-6.08
2023-01-11T14:46:35.288Z,-6.43
2023-01-11T14:49:20.506Z,-6.35
2023-01-11T14:51:53.134Z,-6.11
2023-01-11T14:54:32.977Z,-6.06
2023-01-11T14:57:00.543Z,-6.17
2023-01-11T14:59:30.638Z,-6.06
2023-01-11T15:02:03.903Z,-5.84
2023-01-11T15:04:37.128Z,-5.92
2023-01-11T15:07:23.451Z,-6.17
2023-01-11T15:09:56.458Z,-6.37
2023-01-11T15:12:31.946Z,-6.41
2023-01-11T15:15:01.993Z,-6.36
2023-01-11T15:17:50.322Z,-6.59
2023-01-11T15:20:19.346Z,-6.39
2023-01-11T15:22:57.285Z,-6.55
2023-01-11T15:25:30.902Z,-6.58
2023-01-11T15:28:04.852Z,-6.30
2023-01-11T15:30:31.869Z,-6.19
2023-01-11T15:33:17.370Z,-6.26
2023-01-11T15:35:56.558Z,-6.39
2023-01-11T15:38:49.387Z,-6.32
2023-01-11T15:41:52.171Z,-6.24
2023-01-11T15:44:42.468Z,-6.05
2023-01-11T15:47:48.891Z,-6.07
2023-01-11T15:51:07.918Z,-5.96
2023-01-11T15:54:05.850Z,-6.11
2023-01-11T15:56:54.537Z,-6.35
2023-01-11T15:59:44.775Z,-6.30
2023-01-11T16:02:14.904Z,-6.27
2023-01-11T16:05:01.511Z,-6.11
2023-01-11T16:07:40.865Z,-6.10
2023-01-11T16:10:31.099Z,-6.12
2023-01-11T16:12:58.121Z,-6.00
2023-01-11T16:15:41.935Z,-5.97
2023-01-11T16:18:24.780Z,-6.02
2023-01-11T16:21:01.370Z,-5.83
2023-01-11T16:23:31.922Z,-5.69
2023-01-11T16:26:00.306Z,-5.96
2023-01-11T16:28:28.593Z,-6.09
2023-01-11T16:31:02.058Z,-6.18
2023-01-11T16:33:31.733Z,-5.89
2023-01-11T16:36:07.574Z,-5.85
2023-01-11T16:39:00.314Z,-5.75
2023-01-11T16:41:32.539Z,-5.88
2023-01-11T16:44:05.773Z,-6.01
2023-01-11T16:47:19.354Z,-5.94
2023-01-11T16:49:49.468Z,-5.91
2023-01-11T16:52:28.626Z,-6.34
2023-01-11T16:54:59.338Z,-6.25
2023-01-11T16:57:41.054Z,-5.99
2023-01-11T17:00:23.598Z,-5.76
2023-01-11T17:03:00.927Z,-5.84
2023-01-11T17:05:28.268Z,-5.90
2023-01-11T17:07:55.329Z,-5.78
2023-01-11T17:10:28.843Z,-6.18
2023-01-11T17:13:38.826Z,-6.13
2023-01-11T17:16:13.702Z,-5.83
2023-01-11T17:18:42.956Z,-5.88
2023-01-11T17:21:30.296Z,-5.88
2023-01-11T17:24:03.443Z,-5.86
2023-01-11T17:26:58.855Z,-5.67
2023-01-11T17:29:29.221Z,-5.49
2023-01-11T17:31:58.749Z,-5.34
2023-01-11T17:34:38.409Z,-5.23
2023-01-11T17:37:14.251Z,-5.59
2023-01-11T17:39:47.659Z,-5.56
2023-01-11T17:42:34.577Z,-5.59
2023-01-11T17:45:13.037Z,-5.68
2023-01-11T17:47:46.822Z,-5.73
2023-01-11T17:50:27.657Z,-5.97
2023-01-11T17:53:26.864Z,-5.68
2023-01-11T17:56:07.358Z,-5.58
2023-01-11T17:58:38.485Z,-5.71
2023-01-11T18:01:08.504Z,-5.81
2023-01-11T18:03:46.452Z,-5.55
2023-01-11T18:06:40.167Z,-5.44
2023-01-11T18:09:20.639Z,-5.55
2023-01-11T18:11:48.719Z,-5.61
2023-01-11T18:14:28.524Z,-5.68
2023-01-11T18:17:01.995Z,-5.60
2023-01-11T18:19:40.458Z,-5.54
2023-01-11T18:22:29.820Z,-5.81
2023-01-11T18:24:59.348Z,-5.66
2023-01-11T18:27:30.229Z,-5.54
2023-01-11T18:30:01.398Z,-5.34
2023-01-11T18:32:35.867Z,-5.38
2023-01-11T18:35:03.669Z,-5.12
2023-01-11T18:37:30.833Z,-5.34
2023-01-11T18:39:58.245Z,-5.79
2023-01-11T18:42:30.113Z,-6.03
2023-01-11T18:44:57.586Z,-6.07
2023-01-11T18:47:27.283Z,-5.76
2023-01-11T18:49:54.643Z,-5.77
2023-01-11T18:52:24.923Z,-5.75
2023-01-11T18:54:52.192Z,-5.45
2023-01-11T18:57:19.520Z,-5.28
2023-01-11T18:59:47.034Z,-5.37
2023-01-11T19:02:25.242Z,-5.19
2023-01-11T19:04:54.707Z,-5.29
2023-01-11T19:07:23.246Z,-5.76
2023-01-11T19:09:50.557Z,-5.91
2023-01-11T19:12:18.435Z,-5.74
2023-01-11T19:14:45.687Z,-5.41
2023-01-11T19:17:13.655Z,-5.29
2023-01-11T19:19:41.184Z,-5.14
2023-01-11T19:22:08.811Z,-5.31
2023-01-11T19:24:36.116Z,-5.83
2023-01-11T19:27:03.747Z,-5.36
2023-01-11T19:29:31.436Z,-5.15
2023-01-11T19:31:58.585Z,-5.00
2023-01-11T19:34:25.861Z,-5.64
2023-01-11T19:36:53.296Z,-6.14
2023-01-11T19:39:20.423Z,-5.75
2023-01-11T19:42:03.211Z,-5.55
2023-01-11T19:44:33.215Z,-5.21
2023-01-11T19:47:17.253Z,-5.18
2023-01-11T19:49:44.590Z,-5.39
2023-01-11T19:52:14.536Z,-5.66
2023-01-11T19:54:43.178Z,-5.56
2023-01-11T19:57:15.702Z,-5.50
2023-01-11T19:59:42.888Z,-5.39
2023-01-11T20:02:14.928Z,-5.37
2023-01-11T20:04:42.757Z,-5.21
2023-01-11T20:07:11.380Z,-5.54
2023-01-11T20:09:38.618Z,-5.28
2023-01-11T20:12:07.034Z,-5.31
2023-01-11T20:14:34.640Z,-5.15
2023-01-11T20:17:02.333Z,-5.11
2023-01-11T20:19:29.802Z,-5.02
2023-01-11T20:21:56.869Z,-5.08
2023-01-11T20:24:30.352Z,-5.95
2023-01-11T20:27:03.104Z,-5.50
2023-01-11T20:29:30.261Z,-5.45
2023-01-11T20:32:13.351Z,-5.22
2023-01-11T20:34:44.816Z,-5.24
2023-01-11T20:37:11.916Z,-5.47
2023-01-11T20:39:38.984Z,-5.52
2023-01-11T20:42:06.075Z,-5.31
2023-01-11T20:44:33.214Z,-5.32
2023-01-11T20:47:00.754Z,-5.59
2023-01-11T20:49:31.403Z,-5.77
2023-01-11T20:51:59.088Z,-5.64
2023-01-11T20:54:26.404Z,-5.18
2023-01-11T20:56:53.675Z,-4.97
2023-01-11T20:59:20.812Z,-4.84
2023-01-11T21:01:49.665Z,-4.80
2023-01-11T21:04:17.910Z,-5.37
2023-01-11T21:06:47.993Z,-5.52
2023-01-11T21:09:17.540Z,-5.23
2023-01-11T21:11:48.727Z,-5.82
2023-01-11T21:14:15.828Z,-5.81
2023-01-11T21:16:44.397Z,-5.55
2023-01-11T21:19:13.266Z,-5.17
2023-01-11T21:21:41.152Z,-5.17
2023-01-11T21:24:11.212Z,-4.99
2023-01-11T21:26:38.375Z,-4.90
2023-01-11T21:29:06.337Z,-4.88
2023-01-11T21:31:35.486Z,-4.94
2023-01-11T21:34:04.156Z,-4.69
2023-01-11T21:36:32.275Z,-4.61
2023-01-11T21:39:00.652Z,-5.12
2023-01-11T21:41:48.314Z,-5.10
2023-01-11T21:44:16.730Z,-5.05
2023-01-11T21:46:44.161Z,-4.88
2023-01-11T21:49:12.143Z,-4.95
2023-01-11T21:51:58.524Z,-5.03
2023-01-11T21:54:25.752Z,-4.80
2023-01-11T21:56:52.836Z,-4.77
2023-01-11T21:59:20.526Z,-4.84
2023-01-11T22:01:49.459Z,-4.89
2023-01-11T22:04:18.949Z,-4.71
2023-01-11T22:06:51.201Z,-4.62
2023-01-11T22:09:19.637Z,-4.78
2023-01-11T22:11:47.308Z,-4.66
2023-01-11T22:14:14.519Z,-4.66
2023-01-11T22:16:41.718Z,-4.64
2023-01-11T22:19:09.094Z,-4.73
2023-01-11T22:21:37.782Z,-4.95
2023-01-11T22:24:07.782Z,-4.81
2023-01-11T22:26:38.832Z,-4.64
2023-01-11T22:29:17.366Z,-4.67
2023-01-11T22:31:54.994Z,-5.18
2023-01-11T22:34:23.585Z,-5.18
2023-01-11T22:36:51.150Z,-5.12
2023-01-11T22:39:21.746Z,-5.07
2023-01-11T22:41:49.315Z,-5.03
2023-01-11T22:44:18.227Z,-4.73
2023-01-11T22:46:46.411Z,-5.38
2023-01-11T22:49:13.857Z,-5.13
2023-01-11T22:51:42.343Z,-4.85
2023-01-11T22:54:10.929Z,-4.62
2023-01-11T22:56:38.384Z,-4.52
2023-01-11T22:59:05.998Z,-4.38
2023-01-11T23:01:38.601Z,-4.65
2023-01-11T23:04:08.713Z,-4.93
2023-01-11T23:06:38.497Z,-4.68
2023-01-11T23:09:09.489Z,-4.66
2023-01-11T23:11:56.059Z,-4.73
2023-01-11T23:14:30.488Z,-4.66
2023-01-11T23:17:07.646Z,-4.62
2023-01-11T23:19:37.112Z,-4.37
2023-01-11T23:22:04.984Z,-4.72
2023-01-11T23:24:32.716Z,-5.27
2023-01-11T23:26:59.991Z,-4.90
2023-01-11T23:29:27.551Z,-4.90
2023-01-11T23:31:54.744Z,-4.74
2023-01-11T23:34:22.011Z,-4.68
2023-01-11T23:36:49.081Z,-4.57
2023-01-11T23:39:18.761Z,-4.40
2023-01-11T23:42:04.869Z,-4.63
2023-01-11T23:44:32.264Z,-5.09
2023-01-11T23:47:18.097Z,-4.79
2023-01-11T23:49:45.616Z,-4.49
2023-01-11T23:52:12.748Z,-4.84
2023-01-11T23:54:40.001Z,-4.93
2023-01-11T23:57:07.625Z,-4.77
2023-01-11T23:59:34.723Z,-5.10
